Aviation Digital Data Service (ADDS)

Output produced by METARs form (1711 UTC 21 September 2019)
found at http://aviationweather.gov/metar/data/
 
KIAH 211523Z 2115/2218 11010KT P6SM SCT025 SCT250 
     FM211700 13014KT P6SM VCSH SCT025 BKN035 
     FM220100 13011KT P6SM FEW035 SCT250 
     FM220800 13006KT P6SM SCT020 
     FM221200 12005KT P6SM FEW025 SCT250